Chelan Falls, Washington
Current Conditions -  °F | °C
As of 3:55 PM on Wednesday 28 Jan 2015 (Local Time) from KEAT Reporting Station
Overcast Overcast  
Wind Chill: 30°   Ceiling: 900
Heat Index: 36°   Visibility: 10mi
Dew Point: 32°   Wind: 8mph
Humidity: 86%   Direction: 160°SSE
Pressure: 30.43"   Gusts: NA
Location:  47.8°N, 119.99°W
Report Text: KEAT 282355Z AUTO 16007KT 10SM OVC009 02/00 A3043 RMK AO2 SLP314 T00220000 10022 20011 53002
Loading
Personal Weather Stations






























Interactive Weather Map New forecast layout! Learn more

10-Day Weather Forecast

Advertisements
Track Severe Weather on mobile